Time;durP1;ratioP1;P1;durP2;ratioP2;P2;SDS_P1;SDS_P2;PMS_P1;PMS_P2;Temp;Humidity;BMP_temperature;BMP_pressure;BME280_temperature;BME280_humidity;BME280_pressure;Samples;Min_cycle;Max_cycle;Signal;HPM_P1;HPM_P2
2023/07/22 00:01:55;;;;;;;;;;;;;;;17.76;51.00;96521.69;6294454;28;19932;-71
2023/07/22 00:04:57;;;;;;;;;;;;;;;17.62;51.05;96514.25;6295019;28;19928;-70
2023/07/22 00:08:00;;;;;;;;;;;;;;;17.54;51.36;96511.50;6294804;28;20015;-72
2023/07/22 00:11:04;;;;;;;;;;;;;;;17.51;51.44;96510.00;6277412;28;19925;-72
2023/07/22 00:14:06;;;;;;;;;;;;;;;17.44;51.65;96507.13;6276268;28;19971;-71
2023/07/22 00:17:07;;;;;;;;;;;;;;;17.42;51.88;96506.41;6293778;28;19924;-71
2023/07/22 00:20:11;;;;;;;;;;;;;;;17.28;51.72;96501.63;6276120;28;19924;-71
2023/07/22 00:23:12;;;;;;;;;;;;;;;17.29;51.45;96503.28;6299130;28;19935;-72
2023/07/22 00:26:17;;;;;;;;;;;;;;;17.31;51.50;96503.16;6298747;28;19924;-71
2023/07/22 00:29:18;;;;;;;;;;;;;;;17.30;51.54;96512.13;6298351;28;19927;-71
2023/07/22 00:32:19;;;;;;;;;;;;;;;17.65;51.81;96516.63;6280929;28;19924;-71
2023/07/22 00:35:22;;;;;;;;;;;;;;;17.56;52.13;96525.50;6265606;28;19924;-72
2023/07/22 00:38:26;;;;;;;;;;;;;;;17.48;52.30;96523.59;6297972;28;20338;-71
2023/07/22 00:41:28;;;;;;;;;;;;;;;17.50;51.92;96527.78;6298539;28;19924;-71
2023/07/22 00:44:30;;;;;;;;;;;;;;;17.50;52.40;96543.75;6298233;28;19931;-72
2023/07/22 00:47:34;;;;;;;;;;;;;;;17.57;52.21;96543.13;6298720;28;19924;-71
2023/07/22 00:50:35;;;;;;;;;;;;;;;17.55;51.63;96529.13;6298107;28;19930;-72
2023/07/22 00:53:38;;;;;;;;;;;;;;;17.53;51.92;96531.13;6298520;28;19924;-72
2023/07/22 00:56:43;;;;;;;;;;;;;;;17.39;52.16;96530.66;6281229;28;20301;-71
2023/07/22 00:59:46;;;;;;;;;;;;;;;17.39;51.98;96527.16;6281363;28;19925;-71
2023/07/22 01:02:49;;;;;;;;;;;;;;;17.40;52.00;96528.81;6297996;28;19931;-71
2023/07/22 01:05:54;;;;;;;;;;;;;;;17.49;51.60;96520.81;6297685;28;19924;-71
2023/07/22 01:08:58;;;;;;;;;;;;;;;17.76;51.43;96528.84;6297804;28;20039;-72
2023/07/22 01:12:02;;;;;;;;;;;;;;;17.65;51.36;96524.59;6297530;28;20317;-71
2023/07/22 01:15:07;;;;;;;;;;;;;;;17.59;51.87;96530.53;6298072;28;19924;-72
2023/07/22 01:18:11;;;;;;;;;;;;;;;17.63;51.56;96522.06;6263772;28;19920;-71
2023/07/22 01:21:15;;;;;;;;;;;;;;;17.64;51.07;96528.25;6298175;28;20313;-72
2023/07/22 01:24:18;;;;;;;;;;;;;;;17.72;51.42;96525.66;6279562;28;19925;-71
2023/07/22 01:27:19;;;;;;;;;;;;;;;17.94;51.13;96513.72;6297038;28;19930;-71
2023/07/22 01:30:23;;;;;;;;;;;;;;;18.26;50.40;96521.16;6280504;28;19975;-71
2023/07/22 01:33:24;;;;;;;;;;;;;;;18.59;49.71;96510.69;6295905;28;19924;-71
2023/07/22 01:36:25;;;;;;;;;;;;;;;18.77;49.67;96500.81;6297420;28;19932;-71
2023/07/22 01:39:31;;;;;;;;;;;;;;;18.90;48.98;96510.19;6297521;28;19924;-71
2023/07/22 01:42:32;;;;;;;;;;;;;;;19.03;49.10;96510.59;6296718;28;19924;-71
2023/07/22 01:45:33;;;;;;;;;;;;;;;19.16;48.51;96516.28;6297190;28;20354;-72
2023/07/22 01:48:34;;;;;;;;;;;;;;;19.20;48.79;96528.31;6296844;28;19920;-72
2023/07/22 01:51:37;;;;;;;;;;;;;;;19.13;49.33;96516.59;6297534;28;19924;-71
2023/07/22 01:54:38;;;;;;;;;;;;;;;19.23;49.04;96527.16;6296760;28;19954;-72
2023/07/22 01:57:42;;;;;;;;;;;;;;;19.12;49.34;96525.63;6279943;28;19924;-71
2023/07/22 02:00:48;;;;;;;;;;;;;;;19.09;49.10;96520.59;6296625;28;19920;-71
2023/07/22 02:03:50;;;;;;;;;;;;;;;18.95;49.69;96514.06;6278726;28;19931;-71
2023/07/22 02:06:53;;;;;;;;;;;;;;;18.86;49.94;96514.19;6279476;28;19925;-72
2023/07/22 02:09:55;;;;;;;;;;;;;;;18.77;49.95;96515.97;6296170;28;20023;-72
2023/07/22 02:13:00;;;;;;;;;;;;;;;19.02;49.89;96516.91;6296894;28;19924;-71
2023/07/22 02:16:04;;;;;;;;;;;;;;;19.26;48.94;96530.34;6296704;28;19925;-72
2023/07/22 02:19:07;;;;;;;;;;;;;;;19.28;48.93;96524.84;6296732;28;19930;-71
2023/07/22 02:22:08;;;;;;;;;;;;;;;19.23;48.97;96516.50;6295795;28;19946;-71
2023/07/22 02:25:11;;;;;;;;;;;;;;;19.04;48.97;96517.59;6296510;28;19924;-71
2023/07/22 02:28:21;;;;;;;;;;;;;;;19.29;48.66;96516.66;6296515;28;19924;-71
2023/07/22 02:31:22;;;;;;;;;;;;;;;19.32;48.75;96520.00;6295418;28;20314;-72
2023/07/22 02:34:24;;;;;;;;;;;;;;;19.38;48.60;96530.03;6295096;28;19924;-72
2023/07/22 02:37:25;;;;;;;;;;;;;;;19.73;48.16;96535.16;6277725;28;19924;-71
2023/07/22 02:40:28;;;;;;;;;;;;;;;20.02;47.10;96528.50;6295761;28;19924;-71
2023/07/22 02:43:29;;;;;;;;;;;;;;;19.98;47.70;96528.97;6294723;28;20283;-72
2023/07/22 02:46:31;;;;;;;;;;;;;;;20.04;47.39;96528.31;6294673;28;19924;-71
2023/07/22 02:49:32;;;;;;;;;;;;;;;20.11;47.71;96524.81;6295184;28;20436;-71
2023/07/22 02:52:33;;;;;;;;;;;;;;;20.21;47.36;96526.47;6294568;28;19924;-72
2023/07/22 02:55:36;;;;;;;;;;;;;;;20.45;46.98;96531.81;6277559;28;20015;-72
2023/07/22 02:58:41;;;;;;;;;;;;;;;20.68;46.92;96533.78;6295920;28;19924;-70
2023/07/22 03:01:43;;;;;;;;;;;;;;;20.84;46.89;96547.13;6294898;28;20178;-72
2023/07/22 03:04:44;;;;;;;;;;;;;;;20.94;46.78;96539.72;6294643;28;19931;-72
2023/07/22 03:07:45;;;;;;;;;;;;;;;20.97;47.30;96544.72;6294678;28;19998;-71
2023/07/22 03:10:49;;;;;;;;;;;;;;;21.15;47.32;96549.88;6295509;28;19925;-72
2023/07/22 03:13:53;;;;;;;;;;;;;;;21.17;47.11;96538.97;6278358;28;20011;-71
2023/07/22 03:16:56;;;;;;;;;;;;;;;21.13;47.24;96532.31;6295406;28;19929;-72
2023/07/22 03:20:00;;;;;;;;;;;;;;;21.27;47.33;96539.59;6295533;28;20034;-72
2023/07/22 03:23:07;;;;;;;;;;;;;;;21.34;46.97;96539.72;6277103;28;20408;-72
2023/07/22 03:26:10;;;;;;;;;;;;;;;21.31;47.10;96540.91;6294577;28;20001;-72
2023/07/22 03:29:14;;;;;;;;;;;;;;;21.19;47.38;96543.13;6276778;28;19924;-72
2023/07/22 03:32:17;;;;;;;;;;;;;;;21.23;47.95;96538.25;6295137;28;19954;-73
2023/07/22 03:35:19;;;;;;;;;;;;;;;21.43;47.37;96538.69;6294640;28;19931;-72
2023/07/22 03:38:20;;;;;;;;;;;;;;;21.74;46.95;96536.03;6294372;28;19928;-71
2023/07/22 03:41:21;;;;;;;;;;;;;;;21.79;47.03;96536.31;6294103;28;20416;-72
2023/07/22 03:44:26;;;;;;;;;;;;;;;22.04;46.54;96546.88;6295121;28;19924;-72
2023/07/22 03:47:32;;;;;;;;;;;;;;;22.12;46.45;96544.94;6260858;28;20314;-71
2023/07/22 03:50:35;;;;;;;;;;;;;;;22.10;46.58;96546.13;6294328;28;19932;-72
2023/07/22 03:53:39;;;;;;;;;;;;;;;22.13;46.66;96540.41;6277689;28;20398;-71
2023/07/22 03:56:44;;;;;;;;;;;;;;;22.18;46.53;96536.22;6294376;28;19944;-72
2023/07/22 03:59:48;;;;;;;;;;;;;;;21.89;47.14;96542.28;6294975;28;19933;-73
2023/07/22 04:02:49;;;;;;;;;;;;;;;21.37;48.42;96529.53;6294078;28;20507;-72
2023/07/22 04:05:58;;;;;;;;;;;;;;;21.30;49.42;96533.91;6294669;28;20402;-73
2023/07/22 04:09:02;;;;;;;;;;;;;;;21.11;50.02;96528.97;6294757;28;20383;-72
2023/07/22 04:12:03;;;;;;;;;;;;;;;21.15;49.95;96530.31;6294357;28;19924;-72
2023/07/22 04:15:10;;;;;;;;;;;;;;;21.12;49.57;96520.78;6294435;28;19924;-72
2023/07/22 04:18:11;;;;;;;;;;;;;;;21.45;47.80;96516.09;6293741;28;20322;-70
2023/07/22 04:21:12;;;;;;;;;;;;;;;21.51;46.86;96514.56;6276178;28;19924;-73
2023/07/22 04:24:14;;;;;;;;;;;;;;;21.84;45.89;96509.00;6276441;28;20023;-72
2023/07/22 04:27:17;;;;;;;;;;;;;;;22.09;45.32;96506.97;6294752;28;20306;-73
2023/07/22 04:30:21;;;;;;;;;;;;;;;22.16;45.70;96489.13;6294268;28;20026;-72
2023/07/22 04:33:23;;;;;;;;;;;;;;;22.08;46.11;96499.94;6293571;28;19946;-72
2023/07/22 04:36:25;;;;;;;;;;;;;;;22.36;46.45;96503.75;6293593;28;19925;-72
2023/07/22 04:39:29;;;;;;;;;;;;;;;22.47;46.34;96493.56;6294146;28;19928;-73
2023/07/22 04:42:35;;;;;;;;;;;;;;;22.54;45.06;96489.16;6276677;28;20027;-72
2023/07/22 04:45:40;;;;;;;;;;;;;;;23.93;40.73;96492.75;6293305;28;19925;-71
2023/07/22 04:48:42;;;;;;;;;;;;;;;26.58;35.64;96494.97;6292977;28;19925;-73
2023/07/22 04:51:46;;;;;;;;;;;;;;;28.67;30.33;96498.94;6294099;28;20318;-72
2023/07/22 04:54:50;;;;;;;;;;;;;;;30.41;28.38;96501.16;6294036;28;19924;-72
2023/07/22 04:57:51;;;;;;;;;;;;;;;32.12;26.55;96502.66;6293436;28;19929;-73
2023/07/22 05:00:58;;;;;;;;;;;;;;;34.15;23.86;96508.50;6293755;28;20198;-73
2023/07/22 05:04:04;;;;;;;;;;;;;;;36.17;20.62;96511.91;6293754;28;19924;-72
2023/07/22 05:07:08;;;;;;;;;;;;;;;35.16;20.81;96496.75;6293043;28;19925;-72
2023/07/22 05:10:12;;;;;;;;;;;;;;;36.28;18.90;96514.66;6297246;28;19927;-73
2023/07/22 05:13:16;;;;;;;;;;;;;;;36.81;18.97;96504.28;6297300;28;19939;-72
2023/07/22 05:16:17;;;;;;;;;;;;;;;36.93;19.05;96507.53;6297309;28;19924;-72
2023/07/22 05:19:20;;;;;;;;;;;;;;;35.69;19.87;96513.13;6297820;28;19928;-73
2023/07/22 05:22:26;;;;;;;;;;;;;;;35.19;20.66;96492.66;6279993;28;19993;-71
2023/07/22 05:25:32;;;;;;;;;;;;;;;35.01;21.24;96497.44;6297770;28;19928;-73
2023/07/22 05:28:37;;;;;;;;;;;;;;;37.48;19.08;96492.09;6297691;28;19924;-72
2023/07/22 05:31:41;;;;;;;;;;;;;;;39.58;17.11;96504.19;6297276;28;19928;-72
2023/07/22 05:34:43;;;;;;;;;;;;;;;40.23;16.50;96497.25;6296570;28;19924;-73
2023/07/22 05:37:49;;;;;;;;;;;;;;;40.47;16.60;96500.75;6297240;28;19924;-73
2023/07/22 05:40:53;;;;;;;;;;;;;;;41.50;14.59;96503.34;6296630;28;20014;-73
2023/07/22 05:43:56;;;;;;;;;;;;;;;41.47;13.81;96503.09;6296495;28;19931;-73
2023/07/22 05:46:57;;;;;;;;;;;;;;;39.03;15.40;96481.66;6297487;28;19931;-73
2023/07/22 05:50:00;;;;;;;;;;;;;;;38.26;16.55;96490.56;6296964;28;19924;-73
2023/07/22 05:53:06;;;;;;;;;;;;;;;36.66;17.77;96479.63;6297523;28;20404;-72
2023/07/22 05:56:07;;;;;;;;;;;;;;;35.31;18.91;96488.63;6296566;28;20059;-73
2023/07/22 05:59:10;;;;;;;;;;;;;;;34.43;19.26;96489.09;6296482;28;19931;-73
2023/07/22 06:02:14;;;;;;;;;;;;;;;32.70;21.43;96482.38;6296032;28;19924;-73
2023/07/22 06:05:16;;;;;;;;;;;;;;;31.17;23.18;96503.97;6296950;28;20379;-73
2023/07/22 06:08:17;;;;;;;;;;;;;;;30.14;24.09;96471.69;6295694;28;19924;-72
2023/07/22 06:11:18;;;;;;;;;;;;;;;29.40;25.09;96479.19;6296682;28;19979;-72
2023/07/22 06:14:22;;;;;;;;;;;;;;;28.89;25.92;96461.44;6296815;28;19928;-73
2023/07/22 06:17:27;;;;;;;;;;;;;;;30.52;24.43;96472.38;6296671;28;19976;-73
2023/07/22 06:20:34;;;;;;;;;;;;;;;33.77;21.45;96477.53;6296141;28;20390;-73
2023/07/22 06:23:41;;;;;;;;;;;;;;;35.45;19.92;96488.13;6296545;28;19929;-73
2023/07/22 06:26:42;;;;;;;;;;;;;;;34.49;20.69;96489.16;6296774;28;20349;-73
2023/07/22 06:29:48;;;;;;;;;;;;;;;33.58;21.75;96482.50;6296876;28;19924;-72
2023/07/22 06:32:49;;;;;;;;;;;;;;;36.57;18.90;96471.13;6278034;28;19924;-73
2023/07/22 06:35:52;;;;;;;;;;;;;;;39.48;17.16;96493.28;6296017;28;19924;-73
2023/07/22 06:38:56;;;;;;;;;;;;;;;42.63;15.62;96505.53;6295719;28;20016;-74
2023/07/22 06:42:00;;;;;;;;;;;;;;;44.42;13.55;96497.75;6278260;28;19925;-72
2023/07/22 06:45:01;;;;;;;;;;;;;;;45.84;12.29;96511.38;6295304;28;19924;-73
2023/07/22 06:48:06;;;;;;;;;;;;;;;47.34;11.78;96501.41;6277994;28;20317;-72
2023/07/22 06:51:09;;;;;;;;;;;;;;;46.98;11.59;96497.38;6295193;28;19930;-73
2023/07/22 06:54:15;;;;;;;;;;;;;;;42.27;14.12;96487.88;6295735;28;20401;-73
2023/07/22 06:57:19;;;;;;;;;;;;;;;39.29;15.87;96485.78;6295704;28;20436;-73
2023/07/22 07:00:23;;;;;;;;;;;;;;;35.46;19.23;96470.63;6295585;28;20328;-73
2023/07/22 07:03:24;;;;;;;;;;;;;;;33.66;20.54;96473.03;6295445;28;19931;-74
2023/07/22 07:06:29;;;;;;;;;;;;;;;32.66;21.27;96481.22;6295338;28;19924;-74
2023/07/22 07:09:32;;;;;;;;;;;;;;;31.74;22.38;96475.00;6294399;28;19929;-72
2023/07/22 07:12:36;;;;;;;;;;;;;;;30.76;23.54;96463.13;6276976;28;20432;-74
2023/07/22 07:15:37;;;;;;;;;;;;;;;30.28;25.13;96458.75;6294815;28;20027;-72
2023/07/22 07:18:38;;;;;;;;;;;;;;;29.58;25.83;96474.78;6294191;28;20350;-73
2023/07/22 07:21:42;;;;;;;;;;;;;;;29.07;26.49;96471.47;6294832;28;20015;-72
2023/07/22 07:24:42;;;;;;;;;;;;;;;28.94;27.16;96467.00;6294995;28;20309;-72
2023/07/22 07:27:43;;;;;;;;;;;;;;;28.46;28.31;96465.00;6294921;28;19924;-73
2023/07/22 07:30:50;;;;;;;;;;;;;;;27.94;29.53;96477.84;6294258;28;19924;-74
2023/07/22 07:33:55;;;;;;;;;;;;;;;27.69;29.47;96462.41;6295098;28;20380;-73
2023/07/22 07:36:59;;;;;;;;;;;;;;;28.98;28.61;96460.06;6295083;28;20365;-72
2023/07/22 07:40:03;;;;;;;;;;;;;;;30.80;26.32;96458.94;6294935;28;19924;-73
2023/07/22 07:43:07;;;;;;;;;;;;;;;32.65;24.55;96474.97;6294500;28;19924;-72
2023/07/22 07:46:14;;;;;;;;;;;;;;;36.86;20.57;96479.59;6294156;28;20400;-73
2023/07/22 07:49:17;;;;;;;;;;;;;;;40.82;17.55;96506.78;6294857;28;19931;-73
2023/07/22 07:52:18;;;;;;;;;;;;;;;42.34;15.15;96498.50;6293936;28;19931;-72
2023/07/22 07:55:19;;;;;;;;;;;;;;;42.23;15.48;96486.84;6293532;28;19924;-73
2023/07/22 07:58:25;;;;;;;;;;;;;;;43.42;15.05;96493.78;6294670;28;19924;-72
2023/07/22 08:01:28;;;;;;;;;;;;;;;41.61;15.04;96470.78;6276253;28;20408;-74
2023/07/22 08:04:33;;;;;;;;;;;;;;;39.06;17.40;96470.06;6294664;28;19928;-73
2023/07/22 08:07:39;;;;;;;;;;;;;;;37.67;18.71;96464.00;6294735;28;19943;-73
2023/07/22 08:10:44;;;;;;;;;;;;;;;37.45;19.03;96472.56;6294666;28;19994;-73
2023/07/22 08:13:47;;;;;;;;;;;;;;;35.98;20.39;96445.03;6294479;28;19932;-74
2023/07/22 08:16:51;;;;;;;;;;;;;;;34.52;21.57;96459.38;6294453;28;19928;-73
2023/07/22 08:19:52;;;;;;;;;;;;;;;33.80;22.40;96454.34;6293323;28;19920;-73
2023/07/22 08:22:53;;;;;;;;;;;;;;;33.52;22.35;96450.81;6294030;28;20027;-73
2023/07/22 08:25:57;;;;;;;;;;;;;;;33.17;22.90;96448.44;6294519;28;20457;-73
2023/07/22 08:29:00;;;;;;;;;;;;;;;33.09;23.18;96447.81;6293605;28;19970;-72
2023/07/22 08:32:01;;;;;;;;;;;;;;;32.22;23.87;96453.00;6293556;28;19932;-72
2023/07/22 08:35:06;;;;;;;;;;;;;;;30.82;25.47;96445.91;6294668;28;19924;-74
2023/07/22 08:38:08;;;;;;;;;;;;;;;29.56;27.11;96422.69;6292862;28;19924;-73
2023/07/22 08:41:13;;;;;;;;;;;;;;;28.81;28.04;96429.22;6294094;28;19924;-72
2023/07/22 08:44:17;;;;;;;;;;;;;;;28.14;29.64;96419.06;6298812;28;19931;-73
2023/07/22 08:47:25;;;;;;;;;;;;;;;27.62;30.35;96428.34;6298641;28;20318;-72
2023/07/22 08:50:34;;;;;;;;;;;;;;;27.24;31.41;96427.31;6281069;28;19924;-73
2023/07/22 08:53:38;;;;;;;;;;;;;;;26.60;31.90;96423.56;6280179;28;19924;-73
2023/07/22 08:56:40;;;;;;;;;;;;;;;26.42;32.41;96401.78;6297722;28;20010;-72
2023/07/22 08:59:43;;;;;;;;;;;;;;;26.53;32.70;96398.47;6298354;28;20436;-73
2023/07/22 09:02:46;;;;;;;;;;;;;;;26.57;32.19;96390.78;6297415;28;19924;-71
2023/07/22 09:05:48;;;;;;;;;;;;;;;26.78;32.37;96393.22;6297079;28;20320;-73
2023/07/22 09:08:50;;;;;;;;;;;;;;;27.20;32.20;96396.34;6298147;28;20062;-72
2023/07/22 09:11:53;;;;;;;;;;;;;;;27.34;31.59;96390.91;6297329;28;19931;-72
2023/07/22 09:14:58;;;;;;;;;;;;;;;27.96;30.90;96387.34;6297889;28;19925;-72
2023/07/22 09:18:05;;;;;;;;;;;;;;;29.38;28.91;96391.03;6297956;28;19920;-72
2023/07/22 09:21:08;;;;;;;;;;;;;;;30.04;28.35;96400.91;6296604;28;20405;-73
2023/07/22 09:24:23;;;;;;;;;;;;;;;29.76;28.32;96404.28;6297991;28;19929;-72
2023/07/22 09:27:34;;;;;;;;;;;;;;;29.20;28.85;96392.75;6297802;28;19924;-72
2023/07/22 09:30:39;;;;;;;;;;;;;;;29.35;28.92;96400.44;6297396;28;19924;-73
2023/07/22 09:33:41;;;;;;;;;;;;;;;29.54;28.86;96395.81;6297084;28;19951;-72
2023/07/22 09:36:50;;;;;;;;;;;;;;;30.13;28.35;96401.38;6297590;28;19947;-72
2023/07/22 09:39:51;;;;;;;;;;;;;;;30.28;27.83;96390.91;6297247;28;19928;-73
2023/07/22 09:43:02;;;;;;;;;;;;;;;30.41;27.51;96390.69;6297544;28;19931;-73
2023/07/22 09:46:08;;;;;;;;;;;;;;;29.64;28.52;96376.28;6297024;28;19924;-73
2023/07/22 09:49:15;;;;;;;;;;;;;;;29.17;29.00;96385.06;6297488;28;19948;-73
2023/07/22 09:52:20;;;;;;;;;;;;;;;28.81;29.72;96375.06;6297373;28;19924;-73
2023/07/22 09:55:23;;;;;;;;;;;;;;;28.57;30.29;96372.22;6295943;28;20413;-72
2023/07/22 09:58:29;;;;;;;;;;;;;;;28.56;30.72;96384.13;6297186;28;19924;-73
2023/07/22 10:01:34;;;;;;;;;;;;;;;28.08;31.42;96378.50;6297141;28;19924;-73
2023/07/22 10:04:40;;;;;;;;;;;;;;;28.05;31.48;96382.50;6297076;28;19924;-72
2023/07/22 10:07:48;;;;;;;;;;;;;;;28.20;31.35;96371.34;6296894;28;20015;-72
2023/07/22 10:10:53;;;;;;;;;;;;;;;28.74;30.94;96374.34;6296314;28;19925;-73
2023/07/22 10:13:55;;;;;;;;;;;;;;;29.29;30.07;96383.22;6295893;28;19947;-73
2023/07/22 10:16:59;;;;;;;;;;;;;;;29.96;29.24;96380.38;6296633;28;19932;-73
2023/07/22 10:20:07;;;;;;;;;;;;;;;30.13;29.49;96371.53;6296758;28;19928;-72
2023/07/22 10:23:13;;;;;;;;;;;;;;;29.98;29.59;96375.53;6295585;28;19939;-72
2023/07/22 10:26:18;;;;;;;;;;;;;;;29.76;29.88;96371.75;6296025;28;19924;-72
2023/07/22 10:29:22;;;;;;;;;;;;;;;29.51;30.20;96370.00;6296595;28;19947;-72
2023/07/22 10:32:31;;;;;;;;;;;;;;;29.31;30.71;96374.88;6296469;28;19924;-73
2023/07/22 10:35:41;;;;;;;;;;;;;;;28.78;31.94;96362.00;6296205;28;20015;-72
2023/07/22 10:38:43;;;;;;;;;;;;;;;28.01;32.86;96358.84;6296115;28;20305;-73
2023/07/22 10:41:46;;;;;;;;;;;;;;;27.54;33.39;96342.94;6296254;28;19925;-71
2023/07/22 10:44:50;;;;;;;;;;;;;;;27.26;33.73;96341.50;6295936;28;20018;-72
2023/07/22 10:48:05;;;;;;;;;;;;;;;27.20;32.98;96353.16;6295942;28;20023;-73
2023/07/22 10:51:12;;;;;;;;;;;;;;;26.92;31.81;96344.56;6296090;28;19924;-72
2023/07/22 10:54:14;;;;;;;;;;;;;;;26.62;32.11;96335.13;6295489;28;19924;-72
2023/07/22 10:57:18;;;;;;;;;;;;;;;26.66;31.84;96335.53;6295735;28;20402;-73
2023/07/22 11:00:22;;;;;;;;;;;;;;;26.29;31.93;96329.81;6295584;28;19931;-73
2023/07/22 11:03:23;;;;;;;;;;;;;;;26.03;32.48;96329.88;6294922;28;19924;-73
2023/07/22 11:06:28;;;;;;;;;;;;;;;25.85;33.13;96331.34;6294569;28;19932;-73
2023/07/22 11:12:34;;;;;;;;;;;;;;;25.40;35.15;96333.81;6295054;28;19931;-74
2023/07/22 11:15:37;;;;;;;;;;;;;;;24.36;37.35;96331.34;6295587;28;20023;-72
2023/07/22 11:18:42;;;;;;;;;;;;;;;23.62;40.11;96327.34;6276668;28;19928;-72
2023/07/22 11:21:48;;;;;;;;;;;;;;;23.57;40.34;96327.09;6295197;28;19924;-72
2023/07/22 11:24:49;;;;;;;;;;;;;;;23.58;39.88;96320.72;6293748;28;20063;-73
2023/07/22 11:27:51;;;;;;;;;;;;;;;23.78;40.72;96320.88;6294364;28;20321;-73
2023/07/22 11:30:54;;;;;;;;;;;;;;;23.73;41.57;96313.41;6295181;28;19924;-72
2023/07/22 11:33:55;;;;;;;;;;;;;;;23.77;42.80;96303.09;6294902;28;19925;-73
2023/07/22 11:36:58;;;;;;;;;;;;;;;23.83;41.82;96301.47;6294274;28;19967;-72
2023/07/22 11:40:00;;;;;;;;;;;;;;;24.19;41.44;96295.91;6294697;28;20425;-72
2023/07/22 11:43:02;;;;;;;;;;;;;;;24.52;41.25;96304.16;6294839;28;19924;-72
2023/07/22 11:46:06;;;;;;;;;;;;;;;24.50;41.83;96302.69;6295036;28;19924;-72
2023/07/22 11:49:07;;;;;;;;;;;;;;;24.30;42.16;96313.34;6294786;28;19979;-72
2023/07/22 11:52:10;;;;;;;;;;;;;;;24.37;42.97;96322.25;6294489;28;19940;-72
2023/07/22 11:55:14;;;;;;;;;;;;;;;24.38;43.55;96342.75;6294033;28;19925;-72
2023/07/22 11:58:23;;;;;;;;;;;;;;;23.87;44.97;96335.00;6294140;28;19924;-73
2023/07/22 12:01:32;;;;;;;;;;;;;;;22.99;47.23;96324.50;6294676;28;19924;-72
2023/07/22 12:04:35;;;;;;;;;;;;;;;22.49;48.90;96325.34;6294665;28;19924;-72
2023/07/22 12:07:38;;;;;;;;;;;;;;;21.97;49.42;96327.09;6294668;28;19925;-73
2023/07/22 12:10:42;;;;;;;;;;;;;;;21.76;49.61;96317.09;6294633;28;20385;-73
2023/07/22 12:13:46;;;;;;;;;;;;;;;21.89;48.27;96309.25;6294489;28;19935;-73
2023/07/22 12:16:47;;;;;;;;;;;;;;;21.90;48.00;96308.22;6295555;28;19925;-72
2023/07/22 12:19:52;;;;;;;;;;;;;;;21.98;47.26;96286.72;6298904;28;19931;-73
2023/07/22 12:22:58;;;;;;;;;;;;;;;22.01;47.51;96300.75;6299212;28;20314;-73
2023/07/22 12:26:00;;;;;;;;;;;;;;;22.07;47.58;96305.38;6298201;28;20039;-73
2023/07/22 12:29:04;;;;;;;;;;;;;;;22.17;47.77;96305.94;6299172;28;19931;-73
2023/07/22 12:32:08;;;;;;;;;;;;;;;22.08;48.40;96307.88;6299290;28;20227;-72
2023/07/22 12:35:13;;;;;;;;;;;;;;;22.12;48.72;96302.97;6299089;28;19925;-73
2023/07/22 12:38:17;;;;;;;;;;;;;;;22.12;48.96;96301.13;6298534;28;20026;-72
2023/07/22 12:41:18;;;;;;;;;;;;;;;22.34;47.90;96306.59;6298531;28;20417;-72
2023/07/22 12:44:19;;;;;;;;;;;;;;;22.30;47.84;96316.00;6298589;28;20398;-72
2023/07/22 12:47:23;;;;;;;;;;;;;;;22.23;47.58;96313.25;6281236;28;20019;-72
2023/07/22 12:50:29;;;;;;;;;;;;;;;22.21;47.79;96307.25;6298277;28;20059;-72
2023/07/22 12:53:30;;;;;;;;;;;;;;;22.19;48.59;96322.66;6297770;28;19924;-72
2023/07/22 12:56:31;;;;;;;;;;;;;;;22.04;49.10;96311.94;6298517;28;19978;-73
2023/07/22 12:59:34;;;;;;;;;;;;;;;21.93;49.48;96302.50;6297698;28;19924;-71
2023/07/22 13:02:35;;;;;;;;;;;;;;;21.94;49.46;96312.22;6298524;28;19924;-71
2023/07/22 13:05:37;;;;;;;;;;;;;;;21.82;50.14;96308.31;6280342;28;19931;-72
2023/07/22 13:08:40;;;;;;;;;;;;;;;22.01;50.05;96314.97;6297795;28;19924;-72
2023/07/22 13:11:44;;;;;;;;;;;;;;;21.51;51.22;96311.97;6297950;28;19928;-72
2023/07/22 13:14:48;;;;;;;;;;;;;;;21.20;52.72;96319.22;6298314;28;19925;-73
2023/07/22 13:17:51;;;;;;;;;;;;;;;20.98;54.35;96332.44;6298222;28;19983;-71
2023/07/22 13:20:52;;;;;;;;;;;;;;;20.79;56.13;96327.53;6297117;28;20332;-71
2023/07/22 13:24:00;;;;;;;;;;;;;;;20.26;58.26;96321.91;6298059;28;19924;-71
2023/07/22 13:27:01;;;;;;;;;;;;;;;20.11;59.54;96323.66;6296963;28;19924;-71
2023/07/22 13:30:06;;;;;;;;;;;;;;;20.24;59.35;96317.75;6296630;28;20412;-72
2023/07/22 13:33:07;;;;;;;;;;;;;;;20.24;59.40;96318.63;6297312;28;19924;-72
2023/07/22 13:36:11;;;;;;;;;;;;;;;20.29;59.36;96320.75;6297746;28;19924;-71
2023/07/22 13:39:14;;;;;;;;;;;;;;;20.34;59.51;96313.06;6297383;28;19954;-72
2023/07/22 13:42:17;;;;;;;;;;;;;;;20.36;59.49;96306.53;6296818;28;19925;-73
2023/07/22 13:45:18;;;;;;;;;;;;;;;20.30;59.89;96314.41;6297504;28;20413;-73
2023/07/22 13:48:21;;;;;;;;;;;;;;;20.17;59.93;96313.09;6297495;28;20014;-73
2023/07/22 13:51:23;;;;;;;;;;;;;;;20.08;60.67;96308.81;6297588;28;20074;-72
2023/07/22 13:54:24;;;;;;;;;;;;;;;20.04;60.67;96302.16;6296644;28;19924;-72
2023/07/22 13:57:28;;;;;;;;;;;;;;;19.95;61.33;96308.50;6297417;28;19924;-71
2023/07/22 14:00:29;;;;;;;;;;;;;;;19.91;61.56;96307.19;6297382;28;19924;-72
2023/07/22 14:03:33;;;;;;;;;;;;;;;19.83;61.55;96316.06;6297129;28;19924;-72
2023/07/22 14:06:35;;;;;;;;;;;;;;;19.79;62.04;96305.88;6296297;28;19924;-73
2023/07/22 14:09:39;;;;;;;;;;;;;;;19.90;61.31;96318.88;6297149;28;20382;-72
2023/07/22 14:12:40;;;;;;;;;;;;;;;19.76;61.82;96303.56;6296228;28;19931;-73
2023/07/22 14:15:41;;;;;;;;;;;;;;;19.52;62.41;96318.59;6295902;28;19947;-72
2023/07/22 14:18:44;;;;;;;;;;;;;;;19.52;62.01;96318.59;6296881;28;20461;-72
2023/07/22 14:21:47;;;;;;;;;;;;;;;19.49;61.70;96318.94;6296120;28;19959;-72
2023/07/22 14:24:54;;;;;;;;;;;;;;;19.24;61.99;96316.25;6295557;28;19928;-72
2023/07/22 14:27:58;;;;;;;;;;;;;;;19.40;62.03;96303.94;6295861;28;19924;-72
2023/07/22 14:30:59;;;;;;;;;;;;;;;19.55;61.27;96302.25;6296568;28;19920;-72
2023/07/22 14:34:05;;;;;;;;;;;;;;;19.51;61.13;96296.41;6296437;28;19925;-73
2023/07/22 14:37:08;;;;;;;;;;;;;;;19.57;61.11;96300.25;6296523;28;19924;-71
2023/07/22 14:40:09;;;;;;;;;;;;;;;19.69;60.62;96288.22;6295090;28;19970;-72
2023/07/22 14:43:12;;;;;;;;;;;;;;;19.65;60.53;96278.06;6296272;28;19931;-71
2023/07/22 14:46:16;;;;;;;;;;;;;;;19.83;60.60;96284.03;6299161;28;20409;-71
2023/07/22 14:49:21;;;;;;;;;;;;;;;19.73;60.61;96268.22;6295981;28;20397;-71
2023/07/22 14:52:25;;;;;;;;;;;;;;;19.72;60.73;96269.19;6295221;28;20297;-71
2023/07/22 14:55:26;;;;;;;;;;;;;;;19.58;60.72;96248.53;6294879;28;19925;-71
2023/07/22 14:58:32;;;;;;;;;;;;;;;19.65;60.41;96252.22;6295773;28;19928;-73
2023/07/22 15:01:39;;;;;;;;;;;;;;;19.73;60.52;96251.38;6278583;28;19924;-72
2023/07/22 15:04:40;;;;;;;;;;;;;;;19.56;60.94;96239.88;6277751;28;20290;-71
2023/07/22 15:07:46;;;;;;;;;;;;;;;19.43;61.57;96250.25;6295588;28;20010;-72
2023/07/22 15:10:52;;;;;;;;;;;;;;;19.43;61.24;96256.41;6294852;28;20305;-71
2023/07/22 15:13:56;;;;;;;;;;;;;;;19.41;61.80;96255.72;6295338;28;20418;-71
2023/07/22 15:16:59;;;;;;;;;;;;;;;19.49;61.62;96260.22;6295359;28;19924;-72
2023/07/22 15:20:03;;;;;;;;;;;;;;;19.57;61.71;96267.38;6295253;28;19925;-71
2023/07/22 15:23:06;;;;;;;;;;;;;;;19.51;62.09;96275.06;6294229;28;19947;-71
2023/07/22 15:26:11;;;;;;;;;;;;;;;19.48;62.28;96263.91;6277177;28;19928;-72
2023/07/22 15:29:12;;;;;;;;;;;;;;;19.32;62.71;96261.25;6295333;28;19924;-71
2023/07/22 15:32:13;;;;;;;;;;;;;;;19.29;62.81;96257.91;6295224;28;20007;-72
2023/07/22 15:35:16;;;;;;;;;;;;;;;19.51;62.53;96258.22;6294049;28;19931;-72
2023/07/22 15:38:17;;;;;;;;;;;;;;;19.25;63.09;96277.94;6294290;28;20379;-72
2023/07/22 15:41:23;;;;;;;;;;;;;;;19.21;63.85;96268.59;6294750;28;19924;-72
2023/07/22 15:44:27;;;;;;;;;;;;;;;19.05;64.45;96263.25;6294780;28;19962;-73
2023/07/22 15:47:28;;;;;;;;;;;;;;;18.96;64.94;96264.28;6276485;28;19931;-72
2023/07/22 15:50:31;;;;;;;;;;;;;;;18.84;65.51;96261.09;6293874;28;20058;-71
2023/07/22 15:53:32;;;;;;;;;;;;;;;18.66;65.62;96257.75;6293965;28;19932;-72
2023/07/22 15:56:33;;;;;;;;;;;;;;;18.70;65.12;96259.88;6294819;28;20457;-72
2023/07/22 15:59:36;;;;;;;;;;;;;;;18.98;64.34;96257.78;6294336;28;19924;-73